createdAt,value
2018-07-07T00:01:23.495Z,9.63
2018-07-07T00:03:52.206Z,9.40
2018-07-07T00:06:20.814Z,9.50
2018-07-07T00:08:49.440Z,9.87
2018-07-07T00:11:18.084Z,10.57
2018-07-07T00:13:47.432Z,9.47
2018-07-07T00:16:16.131Z,10.70
2018-07-07T00:18:44.903Z,10.00
2018-07-07T00:21:13.474Z,10.33
2018-07-07T00:23:42.352Z,9.63
2018-07-07T00:26:11.550Z,9.50
2018-07-07T00:28:41.198Z,9.83
2018-07-07T00:31:10.628Z,10.43
2018-07-07T00:33:39.190Z,9.27
2018-07-07T00:36:08.187Z,10.07
2018-07-07T00:38:37.419Z,10.43
2018-07-07T00:41:06.234Z,10.40
2018-07-07T00:43:34.970Z,10.20
2018-07-07T00:46:03.689Z,11.07
2018-07-07T00:48:32.245Z,11.30
2018-07-07T00:51:01.086Z,9.97
2018-07-07T00:53:29.755Z,10.03
2018-07-07T00:55:58.363Z,10.87
2018-07-07T00:58:28.399Z,10.33
2018-07-07T01:00:57.023Z,10.87
2018-07-07T01:03:25.633Z,10.87
2018-07-07T01:05:54.492Z,11.40
2018-07-07T01:08:23.375Z,11.20
2018-07-07T01:10:52.015Z,11.37
2018-07-07T01:13:20.882Z,12.30
2018-07-07T01:15:49.463Z,11.70
2018-07-07T01:18:18.464Z,10.50
2018-07-07T01:20:47.459Z,12.47
2018-07-07T01:23:16.104Z,11.63
2018-07-07T01:25:44.768Z,12.00
2018-07-07T01:28:13.329Z,11.13
2018-07-07T01:30:42.367Z,10.17
2018-07-07T01:33:10.953Z,10.77
2018-07-07T01:35:40.367Z,12.00
2018-07-07T01:38:09.829Z,11.43
2018-07-07T01:40:39.948Z,10.70
2018-07-07T01:43:08.589Z,10.90
2018-07-07T01:45:37.231Z,10.20
2018-07-07T01:48:06.213Z,11.40
2018-07-07T01:50:35.246Z,12.83
2018-07-07T01:53:04.500Z,12.37
2018-07-07T01:55:33.281Z,10.90
2018-07-07T01:58:03.650Z,12.20
2018-07-07T02:00:33.018Z,10.90
2018-07-07T02:03:02.329Z,11.20
2018-07-07T02:05:32.617Z,12.17
2018-07-07T02:08:01.934Z,11.00
2018-07-07T02:10:31.839Z,10.83
2018-07-07T02:13:01.325Z,11.83
2018-07-07T02:15:32.024Z,11.40
2018-07-07T02:18:00.636Z,11.50
2018-07-07T02:20:29.206Z,12.80
2018-07-07T02:22:57.808Z,11.93
2018-07-07T02:25:26.405Z,11.47
2018-07-07T02:27:55.055Z,12.07
2018-07-07T02:30:24.506Z,12.73
2018-07-07T02:32:53.964Z,11.63
2018-07-07T02:35:22.582Z,12.37
2018-07-07T02:37:51.444Z,12.33
2018-07-07T02:40:20.038Z,11.97
2018-07-07T02:42:48.726Z,12.97
2018-07-07T02:45:17.415Z,11.77
2018-07-07T02:47:46.227Z,12.27
2018-07-07T02:50:14.888Z,13.00
2018-07-07T02:52:44.367Z,12.07
2018-07-07T02:55:12.937Z,12.83
2018-07-07T02:57:41.551Z,13.00
2018-07-07T03:00:10.212Z,12.97
2018-07-07T03:02:38.772Z,11.47
2018-07-07T03:05:09.078Z,13.20
2018-07-07T03:07:37.963Z,14.10
2018-07-07T03:10:06.785Z,12.40
2018-07-07T03:12:36.106Z,12.03
2018-07-07T03:15:04.887Z,13.50
2018-07-07T03:17:33.949Z,14.20
2018-07-07T03:20:02.647Z,13.97
2018-07-07T03:22:31.243Z,14.00
2018-07-07T03:24:59.873Z,13.03
2018-07-07T03:27:29.326Z,14.37
2018-07-07T03:29:58.879Z,14.67
2018-07-07T03:32:28.720Z,14.00
2018-07-07T03:34:57.545Z,13.50
2018-07-07T03:37:27.387Z,14.50
2018-07-07T03:39:57.317Z,13.90
2018-07-07T03:42:28.263Z,14.00
2018-07-07T03:44:57.328Z,14.70
2018-07-07T03:47:26.037Z,13.93
2018-07-07T03:49:54.594Z,14.97
2018-07-07T03:52:24.027Z,14.37
2018-07-07T03:54:52.609Z,13.43
2018-07-07T03:57:21.855Z,14.40
2018-07-07T03:59:50.483Z,14.90
2018-07-07T04:02:19.209Z,15.20
2018-07-07T04:04:48.499Z,14.17
2018-07-07T04:07:17.780Z,14.20
2018-07-07T04:09:46.750Z,12.77
2018-07-07T04:12:16.230Z,11.93
2018-07-07T04:14:45.351Z,12.00
2018-07-07T04:17:15.433Z,12.53
2018-07-07T04:19:44.379Z,13.30
2018-07-07T04:22:13.274Z,13.57
2018-07-07T04:24:42.598Z,13.33
2018-07-07T04:27:11.177Z,12.67
2018-07-07T04:29:39.822Z,13.17
2018-07-07T04:32:08.641Z,13.30
2018-07-07T04:34:37.490Z,14.17
2018-07-07T04:37:06.696Z,14.20
2018-07-07T04:39:35.313Z,14.13
2018-07-07T04:42:03.958Z,13.30
2018-07-07T04:44:32.719Z,13.10
2018-07-07T04:47:02.186Z,14.40
2018-07-07T04:49:30.766Z,14.20
2018-07-07T04:51:59.395Z,15.40
2018-07-07T04:54:28.000Z,15.60
2018-07-07T04:56:56.631Z,14.40
2018-07-07T04:59:25.888Z,15.37
2018-07-07T05:01:54.613Z,14.87
2018-07-07T05:04:24.347Z,14.77
2018-07-07T05:06:53.459Z,14.67
2018-07-07T05:09:22.177Z,16.13
2018-07-07T05:11:50.818Z,15.33
2018-07-07T05:14:19.399Z,16.83
2018-07-07T05:16:51.380Z,16.97
2018-07-07T05:19:21.617Z,16.07
2018-07-07T05:21:50.734Z,15.70
2018-07-07T05:24:19.483Z,17.13
2018-07-07T05:26:49.564Z,16.80
2018-07-07T05:29:18.429Z,15.30
2018-07-07T05:31:47.382Z,16.43
2018-07-07T05:34:16.307Z,16.27
2018-07-07T05:36:44.989Z,16.10
2018-07-07T05:39:14.024Z,16.50
2018-07-07T05:41:42.837Z,16.40
2018-07-07T05:44:11.639Z,16.70
2018-07-07T05:46:40.677Z,16.53
2018-07-07T05:49:09.932Z,17.10
2018-07-07T05:51:38.627Z,16.30
2018-07-07T05:54:07.432Z,15.10
2018-07-07T05:56:36.128Z,15.80
2018-07-07T05:59:06.019Z,17.10
2018-07-07T06:01:34.736Z,16.97
2018-07-07T06:04:03.781Z,16.60
2018-07-07T06:06:32.461Z,15.93
2018-07-07T06:09:02.449Z,16.50
2018-07-07T06:11:31.505Z,17.17
2018-07-07T06:14:00.152Z,16.60
2018-07-07T06:16:28.861Z,16.37
2018-07-07T06:18:57.686Z,16.90
2018-07-07T06:21:27.424Z,16.97
2018-07-07T06:23:57.281Z,17.00
2018-07-07T06:26:26.024Z,16.80
2018-07-07T06:28:54.752Z,16.10
2018-07-07T06:31:23.453Z,16.33
2018-07-07T06:33:52.105Z,17.27
2018-07-07T06:36:21.728Z,16.50
2018-07-07T06:38:50.329Z,17.80
2018-07-07T06:41:18.925Z,16.20
2018-07-07T06:43:47.634Z,17.40
2018-07-07T06:46:16.205Z,17.17
2018-07-07T06:48:44.938Z,15.77
2018-07-07T06:51:13.583Z,18.27
2018-07-07T06:53:42.560Z,18.57
2018-07-07T06:56:11.686Z,17.23
2018-07-07T06:58:40.364Z,17.80
2018-07-07T07:01:09.207Z,17.10
2018-07-07T07:03:37.790Z,17.07
2018-07-07T07:06:08.763Z,17.13
2018-07-07T07:08:37.465Z,17.77
2018-07-07T07:11:06.214Z,16.87
2018-07-07T07:13:34.968Z,16.90
2018-07-07T07:16:03.652Z,17.90
2018-07-07T07:18:32.258Z,18.77
2018-07-07T07:21:00.892Z,17.37
2018-07-07T07:23:29.724Z,17.90
2018-07-07T07:25:58.539Z,18.20
2018-07-07T07:28:27.148Z,18.47
2018-07-07T07:30:56.383Z,20.80
2018-07-07T07:33:25.333Z,18.87
2018-07-07T07:35:54.849Z,18.17
2018-07-07T07:38:23.701Z,20.27
2018-07-07T07:40:52.360Z,20.20
2018-07-07T07:43:21.892Z,19.40
2018-07-07T07:45:50.928Z,18.53
2018-07-07T07:48:19.681Z,18.30
2018-07-07T07:50:48.316Z,17.67
2018-07-07T07:53:17.092Z,15.43
2018-07-07T07:55:45.716Z,16.90
2018-07-07T07:58:15.390Z,12.20
2018-07-07T08:00:44.034Z,14.50
2018-07-07T08:03:13.048Z,16.13
2018-07-07T08:05:41.656Z,17.60
2018-07-07T08:08:10.320Z,16.90
2018-07-07T08:10:38.907Z,14.63
2018-07-07T08:13:07.523Z,10.90
2018-07-07T08:15:37.095Z,14.90
2018-07-07T08:18:06.078Z,10.27
2018-07-07T08:20:34.922Z,11.30
2018-07-07T08:23:03.898Z,11.07
2018-07-07T08:25:32.673Z,10.10
2018-07-07T08:28:01.291Z,9.60
2018-07-07T08:30:29.947Z,9.90
2018-07-07T08:32:58.540Z,9.10
2018-07-07T08:35:27.597Z,9.00
2018-07-07T08:37:56.320Z,8.60
2018-07-07T08:40:24.985Z,8.80
2018-07-07T08:42:53.629Z,9.40
2018-07-07T08:45:22.299Z,9.80
2018-07-07T08:47:51.108Z,7.97
2018-07-07T08:50:19.966Z,9.13
2018-07-07T08:52:48.714Z,8.87
2018-07-07T08:55:17.466Z,8.70
2018-07-07T08:57:46.441Z,9.03
2018-07-07T09:00:18.223Z,8.50
2018-07-07T09:02:47.047Z,8.37
2018-07-07T09:05:15.962Z,8.70
2018-07-07T09:07:44.553Z,8.47
2018-07-07T09:10:13.229Z,8.40
2018-07-07T09:12:41.897Z,8.10
2018-07-07T09:15:10.529Z,10.93
2018-07-07T09:17:39.192Z,9.00
2018-07-07T09:20:09.151Z,10.00
2018-07-07T09:22:38.630Z,10.07
2018-07-07T09:25:07.298Z,9.90
2018-07-07T09:27:35.928Z,10.90
2018-07-07T09:30:05.068Z,10.30
2018-07-07T09:32:33.829Z,10.13
2018-07-07T09:35:03.089Z,10.80
2018-07-07T09:37:34.452Z,10.13
2018-07-07T09:40:03.801Z,10.57
2018-07-07T09:42:34.109Z,11.30
2018-07-07T09:45:03.471Z,10.30
2018-07-07T09:47:32.360Z,10.90
2018-07-07T09:50:01.067Z,9.27
2018-07-07T09:52:30.688Z,11.30
2018-07-07T09:54:59.388Z,11.37
2018-07-07T09:57:29.902Z,11.53
2018-07-07T10:00:00.219Z,11.20
2018-07-07T10:02:28.996Z,10.80
2018-07-07T10:04:59.321Z,10.90
2018-07-07T10:07:28.105Z,10.07
2018-07-07T10:09:56.848Z,10.93
2018-07-07T10:12:25.633Z,11.70
2018-07-07T10:14:54.442Z,11.97
2018-07-07T10:17:24.140Z,10.57
2018-07-07T10:19:53.636Z,10.97
2018-07-07T10:22:22.305Z,12.00
2018-07-07T10:24:51.012Z,11.20
2018-07-07T10:27:19.665Z,11.57
2018-07-07T10:29:48.647Z,12.57
2018-07-07T10:32:17.367Z,13.90
2018-07-07T10:34:46.084Z,13.10
2018-07-07T10:37:15.810Z,13.77
2018-07-07T10:39:48.195Z,15.20
2018-07-07T10:42:18.455Z,13.13
2018-07-07T10:44:49.202Z,13.07
2018-07-07T10:47:17.956Z,14.87
2018-07-07T10:49:47.885Z,15.00
2018-07-07T10:52:22.544Z,15.57
2018-07-07T10:54:52.920Z,13.07
2018-07-07T10:57:23.329Z,13.53
2018-07-07T10:59:53.357Z,14.07
2018-07-07T11:02:24.391Z,15.00
2018-07-07T11:04:54.717Z,14.43
2018-07-07T11:07:24.812Z,12.60
2018-07-07T11:09:56.945Z,16.03
2018-07-07T11:12:28.299Z,14.10
2018-07-07T11:14:57.547Z,14.47
2018-07-07T11:17:26.209Z,14.43
2018-07-07T11:19:54.940Z,13.20
2018-07-07T11:22:23.841Z,14.20
2018-07-07T11:24:53.270Z,13.40
2018-07-07T11:27:21.937Z,12.20
2018-07-07T11:29:52.521Z,12.50
2018-07-07T11:32:21.301Z,13.67
2018-07-07T11:34:50.019Z,14.80
2018-07-07T11:37:19.155Z,13.80
2018-07-07T11:39:47.801Z,14.33
2018-07-07T11:42:16.487Z,12.30
2018-07-07T11:44:46.653Z,13.37
2018-07-07T11:47:17.201Z,13.60
2018-07-07T11:49:45.881Z,13.60
2018-07-07T11:52:15.313Z,12.60
2018-07-07T11:54:44.977Z,12.80
2018-07-07T11:57:16.324Z,12.30
2018-07-07T11:59:47.042Z,12.10
2018-07-07T12:02:16.034Z,11.60
2018-07-07T12:04:44.779Z,12.47
2018-07-07T12:07:13.447Z,12.37
2018-07-07T12:09:43.044Z,13.27
2018-07-07T12:12:12.818Z,13.63
2018-07-07T12:14:41.548Z,13.63
2018-07-07T12:17:13.888Z,14.20
2018-07-07T12:19:43.567Z,13.80
2018-07-07T12:22:14.039Z,12.17
2018-07-07T12:24:44.481Z,12.80
2018-07-07T12:27:13.299Z,11.87
2018-07-07T12:29:41.998Z,12.30
2018-07-07T12:32:10.996Z,11.40
2018-07-07T12:34:39.691Z,12.83
2018-07-07T12:37:08.569Z,13.30
2018-07-07T12:39:37.633Z,13.70
2018-07-07T12:42:06.326Z,13.07
2018-07-07T12:44:35.024Z,12.60
2018-07-07T12:47:04.162Z,12.10
2018-07-07T12:49:33.536Z,13.60
2018-07-07T12:52:02.482Z,14.30
2018-07-07T12:54:31.059Z,12.47
2018-07-07T12:56:59.841Z,12.17
2018-07-07T12:59:28.923Z,12.23
2018-07-07T13:01:58.081Z,12.60
2018-07-07T13:04:26.747Z,12.43
2018-07-07T13:06:55.525Z,11.97
2018-07-07T13:09:25.345Z,11.40
2018-07-07T13:11:54.084Z,12.07
2018-07-07T13:14:22.838Z,12.47
2018-07-07T13:16:51.695Z,11.10
2018-07-07T13:19:20.828Z,11.33
2018-07-07T13:21:49.984Z,11.40
2018-07-07T13:24:19.328Z,10.77
2018-07-07T13:26:48.906Z,12.10
2018-07-07T13:29:18.302Z,11.37
2018-07-07T13:31:46.936Z,11.30
2018-07-07T13:34:16.234Z,12.60
2018-07-07T13:36:45.525Z,12.97
2018-07-07T13:39:14.381Z,13.20
2018-07-07T13:41:43.015Z,12.40
2018-07-07T13:44:11.754Z,12.03
2018-07-07T13:46:40.477Z,12.20
2018-07-07T13:49:09.258Z,11.80
2018-07-07T13:51:38.262Z,11.80
2018-07-07T13:54:07.217Z,11.23
2018-07-07T13:56:36.306Z,11.07
2018-07-07T13:59:05.006Z,11.87
2018-07-07T14:01:33.843Z,11.53
2018-07-07T14:04:02.470Z,11.20
2018-07-07T14:06:31.726Z,10.97
2018-07-07T14:09:00.440Z,11.80
2018-07-07T14:11:29.636Z,10.20
2018-07-07T14:13:58.295Z,10.70
2018-07-07T14:16:27.524Z,11.30
2018-07-07T14:18:56.390Z,11.03
2018-07-07T14:21:25.010Z,11.00
2018-07-07T14:23:53.668Z,10.40
2018-07-07T14:26:22.385Z,12.40
2018-07-07T14:28:51.060Z,10.87
2018-07-07T14:31:19.758Z,10.97
2018-07-07T14:33:48.626Z,11.37
2018-07-07T14:36:17.269Z,11.00
2018-07-07T14:38:45.923Z,10.80
2018-07-07T14:41:17.550Z,11.90
2018-07-07T14:44:01.098Z,11.00
2018-07-07T14:46:30.360Z,11.17
2018-07-07T14:48:59.017Z,11.40
2018-07-07T14:51:27.895Z,11.53
2018-07-07T14:53:56.915Z,11.27
2018-07-07T14:56:26.530Z,11.03
2018-07-07T14:58:56.087Z,10.83
2018-07-07T15:01:24.741Z,11.43
2018-07-07T15:03:53.444Z,11.43
2018-07-07T15:06:23.086Z,10.67
2018-07-07T15:08:51.832Z,11.70
2018-07-07T15:11:20.966Z,10.77
2018-07-07T15:13:49.785Z,11.27
2018-07-07T15:16:18.447Z,10.77
2018-07-07T15:18:47.607Z,10.30
2018-07-07T15:21:16.429Z,10.37
2018-07-07T15:23:45.171Z,9.83
2018-07-07T15:26:13.871Z,11.23
2018-07-07T15:28:42.549Z,10.50
2018-07-07T15:31:11.813Z,10.80
2018-07-07T15:33:40.471Z,10.33
2018-07-07T15:36:09.193Z,11.70
2018-07-07T15:38:38.336Z,10.77
2018-07-07T15:41:07.104Z,9.90
2018-07-07T15:43:36.351Z,10.97
2018-07-07T15:46:05.136Z,10.80
2018-07-07T15:48:33.801Z,10.27
2018-07-07T15:51:02.661Z,10.40
2018-07-07T15:53:31.302Z,10.63
2018-07-07T15:55:59.925Z,10.63
2018-07-07T15:58:28.538Z,10.80
2018-07-07T16:00:57.171Z,10.67
2018-07-07T16:03:26.122Z,10.77
2018-07-07T16:05:55.026Z,10.20
2018-07-07T16:08:23.637Z,10.43
2018-07-07T16:10:52.297Z,10.40
2018-07-07T16:13:20.851Z,10.33
2018-07-07T16:15:49.481Z,10.50
2018-07-07T16:18:18.082Z,10.33
2018-07-07T16:20:46.702Z,9.53
2018-07-07T16:23:15.968Z,9.73
2018-07-07T16:25:44.637Z,9.93
2018-07-07T16:28:13.485Z,10.03
2018-07-07T16:30:42.191Z,9.30
2018-07-07T16:33:11.097Z,9.40
2018-07-07T16:35:39.781Z,10.00
2018-07-07T16:38:09.642Z,9.93
2018-07-07T16:40:38.661Z,10.67
2018-07-07T16:43:07.631Z,10.00
2018-07-07T16:45:36.403Z,10.10
2018-07-07T16:48:05.507Z,9.50
2018-07-07T16:50:34.137Z,10.40
2018-07-07T16:53:02.811Z,10.00
2018-07-07T16:55:31.504Z,9.70
2018-07-07T16:58:00.876Z,9.47
2018-07-07T17:00:29.617Z,9.40
2018-07-07T17:02:58.740Z,9.43
2018-07-07T17:05:27.574Z,10.90
2018-07-07T17:07:56.344Z,11.77
2018-07-07T17:10:25.153Z,12.90
2018-07-07T17:12:53.985Z,10.57
2018-07-07T17:15:22.902Z,11.03
2018-07-07T17:17:52.311Z,10.73
2018-07-07T17:20:21.036Z,10.03
2018-07-07T17:22:50.505Z,10.13
2018-07-07T17:25:19.268Z,11.33
2018-07-07T17:27:48.511Z,12.17
2018-07-07T17:30:17.485Z,15.20
2018-07-07T17:32:46.193Z,11.27
2018-07-07T17:35:15.241Z,11.83
2018-07-07T17:37:43.985Z,10.43
2018-07-07T17:40:13.293Z,12.27
2018-07-07T17:42:42.006Z,12.03
2018-07-07T17:45:10.731Z,11.67
2018-07-07T17:47:39.437Z,12.77
2018-07-07T17:50:08.062Z,12.00
2018-07-07T17:52:37.074Z,11.50
2018-07-07T17:55:07.920Z,12.37
2018-07-07T17:57:37.744Z,11.40
2018-07-07T18:00:07.586Z,11.67
2018-07-07T18:02:36.260Z,11.60
2018-07-07T18:05:04.965Z,13.20
2018-07-07T18:07:33.624Z,10.80
2018-07-07T18:10:02.266Z,11.03
2018-07-07T18:12:31.759Z,12.50
2018-07-07T18:15:00.419Z,12.13
2018-07-07T18:17:29.206Z,11.63
2018-07-07T18:19:57.978Z,11.73
2018-07-07T18:22:27.520Z,10.90
2018-07-07T18:24:56.346Z,11.73
2018-07-07T18:27:25.071Z,12.80
2018-07-07T18:29:54.131Z,11.73
2018-07-07T18:32:23.125Z,11.70
2018-07-07T18:34:51.732Z,12.10
2018-07-07T18:37:20.427Z,11.93
2018-07-07T18:39:55.268Z,11.70
2018-07-07T18:42:23.878Z,12.30
2018-07-07T18:44:52.581Z,11.83
2018-07-07T18:47:21.589Z,11.40
2018-07-07T18:49:50.310Z,11.33
2018-07-07T18:52:18.957Z,11.87
2018-07-07T18:54:47.993Z,12.20
2018-07-07T18:57:16.636Z,12.50
2018-07-07T18:59:45.365Z,11.90
2018-07-07T19:02:13.968Z,11.07
2018-07-07T19:04:42.633Z,12.47
2018-07-07T19:07:11.267Z,12.17
2018-07-07T19:09:39.968Z,12.23
2018-07-07T19:12:09.033Z,12.50
2018-07-07T19:14:38.118Z,13.27
2018-07-07T19:17:07.204Z,12.20
2018-07-07T19:19:35.891Z,11.80
2018-07-07T19:22:09.955Z,13.20
2018-07-07T19:24:43.967Z,12.80
2018-07-07T19:27:12.640Z,12.03
2018-07-07T19:29:41.370Z,13.70
2018-07-07T19:32:15.177Z,12.90
2018-07-07T19:34:48.855Z,13.53
2018-07-07T19:37:20.435Z,14.20
2018-07-07T19:39:49.531Z,12.70
2018-07-07T19:42:18.535Z,14.00
2018-07-07T19:44:47.190Z,13.70
2018-07-07T19:47:15.881Z,13.80
2018-07-07T19:49:44.694Z,15.40
2018-07-07T19:52:13.403Z,13.80
2018-07-07T19:54:42.160Z,14.33
2018-07-07T19:57:10.909Z,13.93
2018-07-07T19:59:39.601Z,14.73
2018-07-07T20:02:08.334Z,14.50
2018-07-07T20:04:37.262Z,14.50
2018-07-07T20:07:05.986Z,14.27
2018-07-07T20:09:34.675Z,14.30
2018-07-07T20:12:03.684Z,14.83
2018-07-07T20:14:32.586Z,15.30
2018-07-07T20:17:03.848Z,14.70
2018-07-07T20:20:43.192Z,15.50
2018-07-07T20:23:13.160Z,15.13
2018-07-07T20:25:42.133Z,16.20
2018-07-07T20:28:15.881Z,15.27
2018-07-07T20:30:45.283Z,15.70
2018-07-07T20:33:14.049Z,15.50
2018-07-07T20:35:42.865Z,16.23
2018-07-07T20:38:11.486Z,15.00
2018-07-07T20:40:40.292Z,16.90
2018-07-07T20:43:09.341Z,16.03
2018-07-07T20:45:38.003Z,17.10
2018-07-07T20:48:06.663Z,16.70
2018-07-07T20:50:35.362Z,17.20
2018-07-07T20:53:04.164Z,16.43
2018-07-07T20:55:32.864Z,16.07
2018-07-07T20:58:01.649Z,17.37
2018-07-07T21:00:30.327Z,16.43
2018-07-07T21:02:59.516Z,17.27
2018-07-07T21:05:28.160Z,17.97
2018-07-07T21:07:56.999Z,17.27
2018-07-07T21:10:26.097Z,17.43
2018-07-07T21:12:54.782Z,18.20
2018-07-07T21:15:25.119Z,17.80
2018-07-07T21:17:54.142Z,17.43
2018-07-07T21:20:22.807Z,18.50
2018-07-07T21:22:51.686Z,17.30
2018-07-07T21:25:20.680Z,17.10
2018-07-07T21:27:49.470Z,18.57
2018-07-07T21:30:18.331Z,19.00
2018-07-07T21:32:47.153Z,18.30
2018-07-07T21:35:15.838Z,17.53
2018-07-07T21:37:45.422Z,17.40
2018-07-07T21:40:14.576Z,18.20
2018-07-07T21:42:43.287Z,18.00
2018-07-07T21:45:11.969Z,17.80
2018-07-07T21:47:40.648Z,17.23
2018-07-07T21:50:10.823Z,17.60
2018-07-07T21:52:39.523Z,17.43
2018-07-07T21:55:08.537Z,17.60
2018-07-07T21:57:42.559Z,18.13
2018-07-07T22:00:14.923Z,18.57
2018-07-07T22:02:48.833Z,17.77
2018-07-07T22:05:22.794Z,19.63
2018-07-07T22:07:52.063Z,18.23
2018-07-07T22:10:21.133Z,18.77
2018-07-07T22:12:54.081Z,18.87
2018-07-07T22:15:22.706Z,19.50
2018-07-07T22:17:51.327Z,20.90
2018-07-07T22:20:29.562Z,19.40
2018-07-07T22:22:58.172Z,19.47
2018-07-07T22:25:26.849Z,20.60
2018-07-07T22:27:56.152Z,19.60
2018-07-07T22:30:24.844Z,20.33
2018-07-07T22:32:57.608Z,20.10
2018-07-07T22:35:31.534Z,20.10
2018-07-07T22:38:00.322Z,20.47
2018-07-07T22:40:30.268Z,20.73
2018-07-07T22:42:58.897Z,19.60
2018-07-07T22:45:28.259Z,20.13
2018-07-07T22:47:56.915Z,21.87
2018-07-07T22:50:26.010Z,22.57
2018-07-07T22:52:54.659Z,22.30
2018-07-07T22:55:23.280Z,22.07
2018-07-07T22:57:52.576Z,22.73
2018-07-07T23:00:21.364Z,22.20
2018-07-07T23:02:50.749Z,23.00
2018-07-07T23:05:20.185Z,21.50
2018-07-07T23:07:50.081Z,20.43
2018-07-07T23:10:18.724Z,20.60
2018-07-07T23:12:47.501Z,21.37
2018-07-07T23:15:16.893Z,21.23
2018-07-07T23:17:45.627Z,21.37
2018-07-07T23:20:14.260Z,20.67
2018-07-07T23:22:55.945Z,21.00
2018-07-07T23:25:24.742Z,19.87
2018-07-07T23:27:53.526Z,20.70
2018-07-07T23:30:22.368Z,20.60
2018-07-07T23:32:51.686Z,21.27
2018-07-07T23:35:20.357Z,20.53
2018-07-07T23:37:49.066Z,19.63
2018-07-07T23:40:17.822Z,20.03
2018-07-07T23:42:46.406Z,21.60
2018-07-07T23:45:15.205Z,20.80
2018-07-07T23:47:45.328Z,21.13
2018-07-07T23:50:13.902Z,19.17
2018-07-07T23:52:43.367Z,19.80
2018-07-07T23:55:12.895Z,20.80
2018-07-07T23:57:41.580Z,20.73
